Flight Track Log - Related Links

Times and Time Zones

All times are in EDT time to prevent confusion due to time zone crossing. See the SWA554 flight status page for this flight to view local times or setup timezone preferences in your user account.

Time Position Orientation Groundspeed Altitude Reporting Facility
EDT Latitude Longitude Course Direction KTS MPH feet Rate Location/Type
Tue 03:23:41 PM 42.9500 -87.9000 320° Northwest 140 161 1,300  Level KMKE
Tue 03:25:13 PM 42.9964 -87.9536 320° Northwest 222 255 5,400 3,078 Climbing Chicago Center
Tue 03:26:15 PM 42.9350 -87.9983 208° Southwest 251 289 9,200 3,610 Climbing Chicago Center
Tue 03:27:16 PM 42.8531 -87.9786 170° South 297 342 12,800 3,659 Climbing Chicago Center
Tue 03:28:18 PM 42.7764 -88.0150 199° South 291 335 16,700 3,774 Climbing Chicago Center
Tue 03:29:20 PM 42.6892 -88.0514 197° South 282 325 20,600 2,613 Climbing Chicago Center
Tue 03:30:22 PM 42.5989 -88.0303 170° South 364 419 22,100 1,790 Climbing Chicago Center
Tue 03:31:24 PM 42.5092 -87.9275 140° Southeast 419 482 24,300 2,488 Climbing Chicago Center
Tue 03:32:25 PM 42.4628 -87.7425 109° East 464 534 27,200 2,634 Climbing Chicago Center
Tue 03:33:27 PM 42.4214 -87.5772 109° East 464 534 29,700 2,274 Climbing Chicago Center
Tue 03:34:29 PM 42.3778 -87.4103 109° East 468 539 31,900 2,049 Climbing Chicago Center
Tue 03:35:30 PM 42.3350 -87.2442 109° East 469 540 33,900 1,610 Climbing Chicago Center
Tue 03:36:32 PM 42.2914 -87.0769 109° East 472 543 35,200 1,306 Climbing Chicago Center
Tue 03:37:34 PM 42.2464 -86.9039 109° East 488 562 36,600 1,548 Climbing Chicago Center
Tue 03:38:36 PM 42.2011 -86.7328 110° East 487 560 38,400 1,659 Climbing Chicago Center
Tue 03:39:37 PM 42.1481 -86.5319 110° East 484 557 40,000 1,171 Climbing Chicago Center
Tue 03:40:39 PM 42.1031 -86.3628 110° East 481 554 40,800 484 Climbing Chicago Center
Tue 03:41:41 PM 42.0556 -86.1894 110° East 492 566 41,000 97 Climbing Chicago Center
Tue 03:42:43 PM 42.0094 -86.0153 110° East 495 570 41,000  Level Chicago Center
Tue 03:43:44 PM 41.9619 -85.8436 110° East 492 566 41,000  Level Chicago Center
Tue 03:44:46 PM 41.9147 -85.6711 110° East 491 565 41,000  Level Chicago Center
Tue 03:45:48 PM 41.8681 -85.4997 110° East 487 560 41,000  Level Chicago Center
Tue 03:46:50 PM 41.8192 -85.3242 110° East 492 566 41,000  Level Chicago Center
Tue 03:47:52 PM 41.7703 -85.1511 111° Southeast 490 564 41,000  Level Chicago Center
Tue 03:48:33 PM 41.7308 -85.0022 110° East 487 560 41,000  Level Cleveland Center
Tue 03:49:33 PM 41.6811 -84.8292 111° Southeast 487 560 41,000  Level Cleveland Center
Tue 03:50:33 PM 41.6606 -84.6525 99° East 474 545 41,000  Level Cleveland Center
Tue 03:51:33 PM 41.6542 -84.4686 93° East 479 551 41,000  Level Cleveland Center
Tue 03:52:33 PM 41.6456 -84.2903 94° East 485 558 41,000  Level Cleveland Center
Tue 03:53:33 PM 41.6342 -84.1256 95° East 485 558 41,000  Level Cleveland Center
Tue 03:54:33 PM 41.6167 -83.9442 97° East 485 558 41,000  Level Cleveland Center
Tue 03:55:33 PM 41.5406 -83.7653 120° Southeast 484 557 41,000  Level Cleveland Center
Tue 03:56:33 PM 41.4739 -83.6069 119° Southeast 484 557 41,000  Level Cleveland Center
Tue 03:57:33 PM 41.4050 -83.4486 120° Southeast 489 563 41,000  Level Cleveland Center
Tue 03:58:33 PM 41.3358 -83.2878 120° Southeast 494 568 41,000  Level Cleveland Center
Tue 03:59:33 PM 41.2767 -83.1444 119° Southeast 499 574 41,000  Level Cleveland Center
Tue 04:00:33 PM 41.2092 -82.9900 120° Southeast 494 568 41,000  Level Cleveland Center
Tue 04:01:33 PM 41.1333 -82.8189 120° Southeast 494 568 41,000  Level Cleveland Center
Tue 04:02:33 PM 41.0656 -82.6653 120° Southeast 489 563 41,000  Level Cleveland Center
Tue 04:03:33 PM 40.9972 -82.5089 120° Southeast 489 563 41,000  Level Cleveland Center
Tue 04:04:33 PM 40.9289 -82.3586 121° Southeast 489 563 41,000  Level Cleveland Center
Tue 04:05:33 PM 40.8603 -82.2028 120° Southeast 489 563 41,000  Level Cleveland Center
Tue 04:06:33 PM 40.7914 -82.0531 121° Southeast 484 557 41,000  Level Cleveland Center
Tue 04:07:33 PM 40.7225 -81.8981 120° Southeast 484 557 41,000  Level Cleveland Center
Tue 04:08:33 PM 40.6553 -81.7436 120° Southeast 484 557 41,000  Level Cleveland Center
Tue 04:09:33 PM 40.5858 -81.5892 121° Southeast 484 557 41,000  Level Cleveland Center
Tue 04:10:33 PM 40.5289 -81.4272 115° Southeast 484 557 41,000  Level Cleveland Center
Tue 04:11:33 PM 40.4819 -81.2819 113° Southeast 479 551 41,000  Level Cleveland Center
Tue 04:12:33 PM 40.4222 -81.1203 116° Southeast 484 557 41,000  Level Cleveland Center
Tue 04:13:33 PM 40.3647 -80.9592 115° Southeast 484 557 41,000 -100 Level Cleveland Center
Tue 04:14:33 PM 40.3047 -80.7956 116° Southeast 491 565 40,800 -650 Descending Cleveland Center
Tue 04:15:33 PM 40.2486 -80.6403 115° Southeast 486 559 39,700 -1,000 Descending Cleveland Center
Tue 04:16:33 PM 40.1881 -80.4825 117° Southeast 481 554 38,800 -1,000 Descending Cleveland Center
Tue 04:17:33 PM 40.1231 -80.3142 117° Southeast 473 544 37,700 -900 Descending Cleveland Center
Tue 04:18:33 PM 40.0664 -80.1600 116° Southeast 473 544 37,000 -350 Descending Cleveland Center
Tue 04:19:33 PM 40.0136 -80.0058 114° Southeast 468 539 37,000 -2,000 Level Cleveland Center
Tue 04:20:33 PM 39.9544 -79.8519 117° Southeast 468 539 33,000 -1,100 Descending Cleveland Center
Tue 04:21:33 PM 39.8969 -79.6983 116° Southeast 468 539 34,800 100 Climbing Cleveland Center
Tue 04:22:33 PM 39.8353 -79.5369 116° Southeast 474 545 33,200 -2,462 Descending Cleveland Center
Tue 04:23:30 PM 39.7750 -79.3847 117° Southeast 487 560 30,000 -4,169 Descending Washington Center
Tue 04:24:31 PM 39.7150 -79.2278 116° Southeast 480 552 25,000 -2,479 Descending Washington Center
Tue 04:25:31 PM 39.6594 -79.0714 115° Southeast 480 552 25,000 -400 Level Washington Center
Tue 04:26:31 PM 39.6239 -78.9242 107° East 470 541 24,200 -850 Descending Washington Center
Tue 04:27:31 PM 39.5847 -78.7528 106° East 464 534 23,300 -908 Descending Washington Center
Tue 04:28:30 PM 39.5531 -78.6086 106° East 464 534 22,400 -1,664 Descending Washington Center
Tue 04:29:30 PM 39.5175 -78.4431 106° East 452 520 20,000 -2,250 Descending Washington Center
Tue 04:30:30 PM 39.4872 -78.3103 106° East 432 497 17,900 -2,380 Descending Washington Center
Tue 04:31:31 PM 39.4531 -78.1503 105° East 420 483 15,200 -1,750 Descending Washington Center
Tue 04:32:30 PM 39.4433 -78.0236 96° East 404 465 14,400 -900 Descending Washington Center
Tue 04:33:31 PM 39.4444 -77.8625 89° East 404 465 13,400 -1,000 Descending Washington Center
Tue 04:34:30 PM 39.4447 -77.7200 90° East 404 465 12,400 -950 Descending Washington Center
Tue 04:35:31 PM 39.4453 -77.5722 90° East 404 465 11,500 -645 Descending Washington Center
Tue 04:36:31 PM 39.4453 -77.4433 90° East 381 438 11,100 -200 Descending Washington Center
Tue 04:37:31 PM 39.4533 -77.3250 85° East 337 388 11,100 -68 Level Washington Center
Tue 04:37:59 PM 39.4667 -77.2667 73° East 316 364 11,000 -607 Descending Potomac TRACON
Tue 04:39:00 PM 39.4667 -77.1500 90° East 316 364 10,200 -1,041 Descending Potomac TRACON
Tue 04:40:00 PM 39.4667 -77.0500 90° East 305 351 8,900 -1,300 Descending Potomac TRACON
Tue 04:41:00 PM 39.4667 -76.9333 90° East 298 343 7,600 -1,350 Descending Potomac TRACON
Tue 04:42:00 PM 39.4667 -76.8333 90° East 287 330 6,200 -1,368 Descending Potomac TRACON
Tue 04:42:54 PM 39.4667 -76.7500 90° East 282 325 5,000 -632 Descending Potomac TRACON
Tue 04:43:54 PM 39.4500 -76.6500 102° East 274 315 5,000 -400 Level Potomac TRACON
Tue 04:44:54 PM 39.4000 -76.5833 134° Southeast 266 306 4,200 -500 Descending Potomac TRACON
Tue 04:45:54 PM 39.3500 -76.5333 142° Southeast 256 295 4,000 -100 Descending Potomac TRACON
Tue 04:46:54 PM 39.3000 -76.4667 134° Southeast 259 298 4,000 -298 Level Potomac TRACON
Tue 04:47:55 PM 39.2333 -76.4167 150° Southeast 245 282 3,400 -744 Descending Potomac TRACON
Tue 04:48:55 PM 39.1833 -76.4667 218° Southwest 229 264 2,500 -750 Descending Potomac TRACON
Tue 04:49:55 PM 39.1500 -76.5167 229° Southwest 207 238 1,900 -550 Descending Potomac TRACON
Tue 04:50:55 PM 39.1167 -76.5833 237° Southwest 192 221 1,400 -500 Descending Potomac TRACON
Tue 04:51:55 PM 39.1333 -76.6333 293° West 144 166 900 -500 Descending Potomac TRACON
Tue 04:53:00 PM 39.1667 -76.6667 278° West  Level FlightAware Approximate

Login

Don't have an account? Register now (free) for customized features, flight alerts, and more!